Naro-Fominsk, Russia
Current Conditions -  °F | °C
As of 7:30 AM on Monday 22 Dec 2014 (Local Time) from UUWW Reporting Station
Broken Clouds Broken Clouds  
Wind Chill: 19°   Ceiling: 3700
Heat Index: 30°   Visibility: 6mi
Dew Point: 21°   Wind: 16mph
Humidity: 69%   Direction: 260°W
Pressure: 29.47"   Gusts: NA
Location:  55.39°N, 36.74°E
Report Text: UUWW 220430Z 26007MPS 9999 BKN037 M01/M06 Q0998 24510150 NOSIG
Loading
Personal Weather Stations






























Interactive Weather Map New forecast layout! Learn more

10-Day Weather Forecast

Advertisements
Track Severe Weather on mobile